createdAt,value
2019-05-15T00:00:39.339Z,10.53
2019-05-15T00:01:14.036Z,11.50
2019-05-15T00:01:48.981Z,12.03
2019-05-15T00:02:23.843Z,9.25
2019-05-15T00:02:58.939Z,9.63
2019-05-15T00:03:33.701Z,9.70
2019-05-15T00:04:09.270Z,9.55
2019-05-15T00:04:44.358Z,10.48
2019-05-15T00:05:19.024Z,10.03
2019-05-15T00:05:53.565Z,8.33
2019-05-15T00:06:28.794Z,9.58
2019-05-15T00:07:03.532Z,8.73
2019-05-15T00:07:39.079Z,9.70
2019-05-15T00:08:14.244Z,9.20
2019-05-15T00:08:52.095Z,9.50
2019-05-15T00:09:28.623Z,8.93
2019-05-15T00:10:02.916Z,6.47
2019-05-15T00:10:39.004Z,6.12
2019-05-15T00:11:14.053Z,7.00
2019-05-15T00:11:48.990Z,6.75
2019-05-15T00:12:23.508Z,6.72
2019-05-15T00:12:58.161Z,6.75
2019-05-15T00:13:33.057Z,6.80
2019-05-15T00:14:08.707Z,9.73
2019-05-15T00:14:42.970Z,8.25
2019-05-15T00:15:18.197Z,7.95
2019-05-15T00:15:53.159Z,8.70
2019-05-15T00:16:29.034Z,8.65
2019-05-15T00:17:03.965Z,7.30
2019-05-15T00:17:39.663Z,7.28
2019-05-15T00:18:14.210Z,6.90
2019-05-15T00:18:49.030Z,7.45
2019-05-15T00:19:23.376Z,6.95
2019-05-15T00:19:58.273Z,6.25
2019-05-15T00:20:33.000Z,7.03
2019-05-15T00:21:09.185Z,7.67
2019-05-15T00:21:43.821Z,7.12
2019-05-15T00:22:18.550Z,7.28
2019-05-15T00:22:53.594Z,8.25
2019-05-15T00:23:29.129Z,8.98
2019-05-15T00:24:04.132Z,9.83
2019-05-15T00:24:38.936Z,8.03
2019-05-15T00:25:13.884Z,8.60
2019-05-15T00:25:48.929Z,8.58
2019-05-15T00:26:23.528Z,8.30
2019-05-15T00:26:58.858Z,8.03
2019-05-15T00:27:33.855Z,7.78
2019-05-15T00:28:09.535Z,7.12
2019-05-15T00:28:44.244Z,7.17
2019-05-15T00:29:19.874Z,8.30
2019-05-15T00:29:54.887Z,7.55
2019-05-15T00:30:29.490Z,8.18
2019-05-15T00:31:03.761Z,8.15
2019-05-15T00:31:38.900Z,7.58
2019-05-15T00:32:13.694Z,7.58
2019-05-15T00:32:48.836Z,7.45
2019-05-15T00:33:23.164Z,7.53
2019-05-15T00:33:58.901Z,7.08
2019-05-15T00:34:34.193Z,7.00
2019-05-15T00:35:10.247Z,6.90
2019-05-15T00:35:44.329Z,6.95
2019-05-15T00:36:19.294Z,6.50
2019-05-15T00:36:54.157Z,7.00
2019-05-15T00:37:28.998Z,7.80
2019-05-15T00:38:03.509Z,7.17
2019-05-15T00:38:39.001Z,6.83
2019-05-15T00:39:14.042Z,7.22
2019-05-15T00:39:48.844Z,6.97
2019-05-15T00:40:23.333Z,6.60
2019-05-15T00:40:58.456Z,7.58
2019-05-15T00:41:47.579Z,8.10
2019-05-15T00:42:10.088Z,8.00
2019-05-15T00:42:44.419Z,8.15
2019-05-15T00:43:19.020Z,8.95
2019-05-15T00:43:53.697Z,10.23
2019-05-15T00:44:28.431Z,7.67
2019-05-15T00:45:02.908Z,7.75
2019-05-15T00:45:38.510Z,7.12
2019-05-15T00:46:13.575Z,7.37
2019-05-15T00:46:48.784Z,6.65
2019-05-15T00:47:23.408Z,6.65
2019-05-15T00:47:58.097Z,7.15
2019-05-15T00:48:32.743Z,7.67
2019-05-15T00:49:08.651Z,7.58
2019-05-15T00:49:43.011Z,7.37
2019-05-15T00:50:18.347Z,7.12
2019-05-15T00:50:53.159Z,8.10
2019-05-15T00:51:28.481Z,7.55
2019-05-15T00:52:03.274Z,8.78
2019-05-15T00:52:39.144Z,8.13
2019-05-15T00:53:14.091Z,6.97
2019-05-15T00:53:48.876Z,7.62
2019-05-15T00:54:23.362Z,8.28
2019-05-15T00:54:58.951Z,8.88
2019-05-15T00:55:33.784Z,8.18
2019-05-15T00:56:09.031Z,7.90
2019-05-15T00:56:43.534Z,7.83
2019-05-15T00:57:19.233Z,9.78
2019-05-15T00:57:54.064Z,7.80
2019-05-15T00:58:28.805Z,8.15
2019-05-15T00:59:03.286Z,7.22
2019-05-15T00:59:39.015Z,7.65
2019-05-15T01:00:14.161Z,6.30
2019-05-15T01:00:49.087Z,7.15
2019-05-15T01:01:23.517Z,6.47
2019-05-15T01:01:59.422Z,6.58
2019-05-15T01:02:34.489Z,7.30
2019-05-15T01:03:09.257Z,7.83
2019-05-15T01:03:43.697Z,7.30
2019-05-15T01:04:18.852Z,7.83
2019-05-15T01:04:53.735Z,7.75
2019-05-15T01:05:28.428Z,7.42
2019-05-15T01:06:02.800Z,7.72
2019-05-15T01:06:38.894Z,7.62
2019-05-15T01:07:13.931Z,8.60
2019-05-15T01:07:48.843Z,7.87
2019-05-15T01:08:23.437Z,8.50
2019-05-15T01:08:58.853Z,8.38
2019-05-15T01:09:33.976Z,8.10
2019-05-15T01:10:10.477Z,8.98
2019-05-15T01:10:44.970Z,8.20
2019-05-15T01:11:19.922Z,7.90
2019-05-15T01:11:54.810Z,9.73
2019-05-15T01:12:29.384Z,8.50
2019-05-15T01:13:03.880Z,8.05
2019-05-15T01:13:39.054Z,9.28
2019-05-15T01:14:13.879Z,9.08
2019-05-15T01:14:49.078Z,8.10
2019-05-15T01:15:23.695Z,9.13
2019-05-15T01:15:58.409Z,10.93
2019-05-15T01:16:33.403Z,8.78
2019-05-15T01:17:09.032Z,9.20
2019-05-15T01:17:43.485Z,8.43
2019-05-15T01:18:18.846Z,8.45
2019-05-15T01:18:53.677Z,11.25
2019-05-15T01:19:28.744Z,10.82
2019-05-15T01:20:03.280Z,9.83
2019-05-15T01:20:39.034Z,8.83
2019-05-15T01:21:14.125Z,9.05
2019-05-15T01:21:49.125Z,9.98
2019-05-15T01:22:28.576Z,9.73
2019-05-15T01:23:02.938Z,10.70
2019-05-15T01:23:39.016Z,9.68
2019-05-15T01:24:14.346Z,9.23
2019-05-15T01:24:48.715Z,9.70
2019-05-15T01:25:23.627Z,9.85
2019-05-15T01:25:58.881Z,10.68
2019-05-15T01:26:33.570Z,12.25
2019-05-15T01:27:11.304Z,9.58
2019-05-15T01:27:46.000Z,9.30
2019-05-15T01:28:20.651Z,9.35
2019-05-15T01:28:55.719Z,10.63
2019-05-15T01:29:41.070Z,10.68
2019-05-15T01:30:08.983Z,9.93
2019-05-15T01:30:43.438Z,9.63
2019-05-15T01:31:19.070Z,10.13
2019-05-15T01:31:53.335Z,10.65
2019-05-15T01:32:28.510Z,10.80
2019-05-15T01:33:03.698Z,12.70
2019-05-15T01:33:38.997Z,14.13
2019-05-15T01:34:14.027Z,12.98
2019-05-15T01:34:49.275Z,11.28
2019-05-15T01:35:24.254Z,12.23
2019-05-15T01:35:59.125Z,12.37
2019-05-15T01:36:33.589Z,12.33
2019-05-15T01:37:08.637Z,12.55
2019-05-15T01:37:43.690Z,12.55
2019-05-15T01:38:18.847Z,13.08
2019-05-15T01:38:53.246Z,12.65
2019-05-15T01:39:29.056Z,12.78
2019-05-15T01:40:04.113Z,11.85
2019-05-15T01:40:38.908Z,11.90
2019-05-15T01:41:13.467Z,12.43
2019-05-15T01:41:49.639Z,12.20
2019-05-15T01:42:24.425Z,13.35
2019-05-15T01:42:59.520Z,12.03
2019-05-15T01:43:34.052Z,13.15
2019-05-15T01:44:08.976Z,18.60
2019-05-15T01:44:44.094Z,18.25
2019-05-15T01:45:19.208Z,14.33
2019-05-15T01:45:53.598Z,14.55
2019-05-15T01:46:28.720Z,13.85
2019-05-15T01:47:03.602Z,14.53
2019-05-15T01:47:38.870Z,14.10
2019-05-15T01:48:13.684Z,15.23
2019-05-15T01:48:49.381Z,15.85
2019-05-15T01:49:24.168Z,12.25
2019-05-15T01:49:59.056Z,14.05
2019-05-15T01:50:33.572Z,14.38
2019-05-15T01:51:09.333Z,14.30
2019-05-15T01:51:44.219Z,12.15
2019-05-15T01:52:19.366Z,14.40
2019-05-15T01:52:53.644Z,14.68
2019-05-15T01:53:29.039Z,14.03
2019-05-15T01:54:04.010Z,13.72
2019-05-15T01:54:38.601Z,15.13
2019-05-15T01:55:13.366Z,13.15
2019-05-15T01:55:48.490Z,13.30
2019-05-15T01:56:23.182Z,13.45
2019-05-15T01:56:58.792Z,15.35
2019-05-15T01:57:33.537Z,13.43
2019-05-15T01:58:09.125Z,14.55
2019-05-15T01:58:44.465Z,13.43
2019-05-15T01:59:19.256Z,14.87
2019-05-15T01:59:57.360Z,14.30
2019-05-15T02:00:30.306Z,16.00
2019-05-15T02:01:05.015Z,17.62
2019-05-15T02:01:39.564Z,11.08
2019-05-15T02:02:13.972Z,12.25
2019-05-15T02:02:49.184Z,12.80
2019-05-15T02:03:23.865Z,14.07
2019-05-15T02:03:58.984Z,15.70
2019-05-15T02:04:33.524Z,15.80
2019-05-15T02:05:09.204Z,14.53
2019-05-15T02:05:43.891Z,14.98
2019-05-15T02:06:20.390Z,14.43
2019-05-15T02:06:54.655Z,11.73
2019-05-15T02:07:29.367Z,10.38
2019-05-15T02:08:04.210Z,10.85
2019-05-15T02:08:39.469Z,10.63
2019-05-15T02:09:14.194Z,11.88
2019-05-15T02:09:49.395Z,13.28
2019-05-15T02:10:24.088Z,12.63
2019-05-15T02:10:59.085Z,12.23
2019-05-15T02:11:33.555Z,14.18
2019-05-15T02:12:08.792Z,13.15
2019-05-15T02:12:43.812Z,12.37
2019-05-15T02:13:18.825Z,11.65
2019-05-15T02:13:53.070Z,12.55
2019-05-15T02:14:28.516Z,11.25
2019-05-15T02:15:03.737Z,12.05
2019-05-15T02:15:39.684Z,12.98
2019-05-15T02:16:14.191Z,12.00
2019-05-15T02:16:49.185Z,11.65
2019-05-15T02:17:23.695Z,13.65
2019-05-15T02:17:58.894Z,14.43
2019-05-15T02:18:33.470Z,12.30
2019-05-15T02:19:08.993Z,12.10
2019-05-15T02:19:43.967Z,14.30
2019-05-15T02:20:19.044Z,10.88
2019-05-15T02:20:53.420Z,9.75
2019-05-15T02:21:29.028Z,10.72
2019-05-15T02:22:03.991Z,10.32
2019-05-15T02:22:42.479Z,11.12
2019-05-15T02:23:14.797Z,10.68
2019-05-15T02:23:49.644Z,10.48
2019-05-15T02:24:24.205Z,10.15
2019-05-15T02:24:59.554Z,10.55
2019-05-15T02:25:33.985Z,11.10
2019-05-15T02:26:08.634Z,10.95
2019-05-15T02:26:43.559Z,11.22
2019-05-15T02:27:18.878Z,11.38
2019-05-15T02:27:53.258Z,11.15
2019-05-15T02:28:28.935Z,11.95
2019-05-15T02:29:04.112Z,12.30
2019-05-15T02:29:38.724Z,11.28
2019-05-15T02:30:24.309Z,11.45
2019-05-15T02:30:50.769Z,11.20
2019-05-15T02:31:25.461Z,10.55
2019-05-15T02:32:00.242Z,11.25
2019-05-15T02:32:34.675Z,10.23
2019-05-15T02:33:10.509Z,10.63
2019-05-15T02:33:45.932Z,11.35
2019-05-15T02:34:20.739Z,11.05
2019-05-15T02:34:54.992Z,10.43
2019-05-15T02:35:29.869Z,10.68
2019-05-15T02:36:04.507Z,9.85
2019-05-15T02:36:39.997Z,10.60
2019-05-15T02:37:14.919Z,10.70
2019-05-15T02:37:49.709Z,10.08
2019-05-15T02:38:24.454Z,9.75
2019-05-15T02:38:59.795Z,10.25
2019-05-15T02:39:34.298Z,11.25
2019-05-15T02:40:10.368Z,10.10
2019-05-15T02:40:45.673Z,10.70
2019-05-15T02:41:20.672Z,10.03
2019-05-15T02:41:55.191Z,11.18
2019-05-15T02:42:29.990Z,10.60
2019-05-15T02:43:04.620Z,11.38
2019-05-15T02:43:39.530Z,10.58
2019-05-15T02:44:14.042Z,10.78
2019-05-15T02:44:49.992Z,11.68
2019-05-15T02:45:24.760Z,11.83
2019-05-15T02:46:00.460Z,10.82
2019-05-15T02:46:35.211Z,11.90
2019-05-15T02:47:09.729Z,10.98
2019-05-15T02:47:44.591Z,11.25
2019-05-15T02:48:20.057Z,10.88
2019-05-15T02:48:54.633Z,10.75
2019-05-15T02:49:30.296Z,11.22
2019-05-15T02:50:06.247Z,10.60
2019-05-15T02:50:40.910Z,11.15
2019-05-15T02:51:15.424Z,11.05
2019-05-15T02:51:50.326Z,11.48
2019-05-15T02:52:24.941Z,10.63
2019-05-15T02:53:00.679Z,12.98
2019-05-15T02:53:35.552Z,11.83
2019-05-15T02:54:10.591Z,10.28
2019-05-15T02:54:45.679Z,12.37
2019-05-15T02:55:20.671Z,10.18
2019-05-15T02:55:54.787Z,9.65
2019-05-15T02:56:29.707Z,9.83
2019-05-15T02:57:04.509Z,9.85
2019-05-15T02:57:39.746Z,10.68
2019-05-15T02:58:14.335Z,12.43
2019-05-15T02:58:49.385Z,11.40
2019-05-15T02:59:24.099Z,9.60
2019-05-15T02:59:59.447Z,9.10
2019-05-15T03:00:44.195Z,9.20
2019-05-15T03:01:10.779Z,9.95
2019-05-15T03:01:49.098Z,10.55
2019-05-15T03:02:22.097Z,9.10
2019-05-15T03:02:59.917Z,9.65
2019-05-15T03:03:33.358Z,9.63
2019-05-15T03:04:09.266Z,9.83
2019-05-15T03:04:44.293Z,10.48
2019-05-15T03:05:19.597Z,11.95
2019-05-15T03:05:54.527Z,10.80
2019-05-15T03:06:30.024Z,11.15
2019-05-15T03:07:05.185Z,11.12
2019-05-15T03:07:40.660Z,11.95
2019-05-15T03:08:19.298Z,10.82
2019-05-15T03:08:52.302Z,10.85
2019-05-15T03:09:29.760Z,11.03
2019-05-15T03:10:03.268Z,11.57
2019-05-15T03:10:40.470Z,10.50
2019-05-15T03:11:15.388Z,11.35
2019-05-15T03:11:50.860Z,14.33
2019-05-15T03:12:25.291Z,11.08
2019-05-15T03:13:00.478Z,11.43
2019-05-15T03:13:35.363Z,12.35
2019-05-15T03:14:10.266Z,11.85
2019-05-15T03:14:44.936Z,16.17
2019-05-15T03:15:20.269Z,12.07
2019-05-15T03:15:55.434Z,11.70
2019-05-15T03:16:30.636Z,10.30
2019-05-15T03:17:05.140Z,10.20
2019-05-15T03:17:41.043Z,11.03
2019-05-15T03:18:19.160Z,10.80
2019-05-15T03:18:55.792Z,12.37
2019-05-15T03:19:30.103Z,12.93
2019-05-15T03:20:09.917Z,12.68
2019-05-15T03:20:42.867Z,11.90
2019-05-15T03:21:18.795Z,11.93
2019-05-15T03:21:53.613Z,12.47
2019-05-15T03:22:29.369Z,13.10
2019-05-15T03:23:04.807Z,13.45
2019-05-15T03:23:40.705Z,14.65
2019-05-15T03:24:14.896Z,14.03
2019-05-15T03:24:50.539Z,14.47
2019-05-15T03:25:25.481Z,13.43
2019-05-15T03:26:04.104Z,13.35
2019-05-15T03:26:39.221Z,12.95
2019-05-15T03:27:13.150Z,13.15
2019-05-15T03:27:49.882Z,12.98
2019-05-15T03:28:24.409Z,13.75
2019-05-15T03:28:59.163Z,12.47
2019-05-15T03:29:34.090Z,13.10
2019-05-15T03:30:13.689Z,12.88
2019-05-15T03:31:40.159Z,13.35
2019-05-15T03:32:15.465Z,14.18
2019-05-15T03:32:43.384Z,11.33
2019-05-15T03:33:18.630Z,10.30
2019-05-15T03:33:52.745Z,9.78
2019-05-15T03:34:35.262Z,9.78
2019-05-15T03:35:04.632Z,9.30
2019-05-15T03:35:41.871Z,8.93
2019-05-15T03:36:14.145Z,9.10
2019-05-15T03:36:53.006Z,9.15
2019-05-15T03:37:25.938Z,8.95
2019-05-15T03:38:00.677Z,8.80
2019-05-15T03:38:34.965Z,7.22
2019-05-15T03:39:09.862Z,7.28
2019-05-15T03:39:48.439Z,7.37
2019-05-15T03:40:21.178Z,7.00
2019-05-15T03:40:55.485Z,6.67
2019-05-15T03:41:30.289Z,6.95
2019-05-15T03:42:04.891Z,6.62
2019-05-15T03:42:40.014Z,6.60
2019-05-15T03:43:14.501Z,6.17
2019-05-15T03:43:49.786Z,6.37
2019-05-15T03:44:25.023Z,6.33
2019-05-15T03:44:59.871Z,6.20
2019-05-15T03:45:34.205Z,7.95
2019-05-15T03:46:09.381Z,9.33
2019-05-15T03:46:44.680Z,6.53
2019-05-15T03:47:19.684Z,6.15
2019-05-15T03:47:54.108Z,6.00
2019-05-15T03:48:29.097Z,6.17
2019-05-15T03:49:03.987Z,6.85
2019-05-15T03:49:39.667Z,6.58
2019-05-15T03:50:14.717Z,6.62
2019-05-15T03:50:49.569Z,5.72
2019-05-15T03:51:24.193Z,5.37
2019-05-15T03:51:59.327Z,6.50
2019-05-15T03:52:33.648Z,6.15
2019-05-15T03:53:10.226Z,5.97
2019-05-15T03:53:45.417Z,5.60
2019-05-15T03:54:20.063Z,6.20
2019-05-15T03:54:54.699Z,5.12
2019-05-15T03:55:29.780Z,4.87
2019-05-15T03:56:04.689Z,5.37
2019-05-15T03:56:39.731Z,5.05
2019-05-15T03:57:14.359Z,5.30
2019-05-15T03:57:49.897Z,5.05
2019-05-15T03:58:25.067Z,5.08
2019-05-15T03:59:00.234Z,5.00
2019-05-15T03:59:34.935Z,5.10
2019-05-15T04:00:10.416Z,4.83
2019-05-15T04:00:45.276Z,6.08
2019-05-15T04:01:29.951Z,5.80
2019-05-15T04:01:59.707Z,5.30
2019-05-15T04:02:33.105Z,6.15
2019-05-15T04:03:10.980Z,6.92
2019-05-15T04:03:44.236Z,6.20
2019-05-15T04:04:19.175Z,6.50
2019-05-15T04:04:57.207Z,5.50
2019-05-15T04:05:30.689Z,5.12
2019-05-15T04:06:09.696Z,5.62
2019-05-15T04:06:42.408Z,5.28
2019-05-15T04:07:18.767Z,5.25
2019-05-15T04:07:53.964Z,5.62
2019-05-15T04:08:29.954Z,6.15
2019-05-15T04:09:09.325Z,6.03
2019-05-15T04:09:43.351Z,5.97
2019-05-15T04:10:19.996Z,5.53
2019-05-15T04:10:54.973Z,6.30
2019-05-15T04:11:29.878Z,6.08
2019-05-15T04:12:04.660Z,6.20
2019-05-15T04:12:40.672Z,5.30
2019-05-15T04:13:19.220Z,5.35
2019-05-15T04:13:51.783Z,6.22
2019-05-15T04:14:29.352Z,5.72
2019-05-15T04:15:03.213Z,6.15
2019-05-15T04:15:39.454Z,5.95
2019-05-15T04:16:14.193Z,6.45
2019-05-15T04:16:49.798Z,6.00
2019-05-15T04:17:29.287Z,6.15
2019-05-15T04:18:02.905Z,6.47
2019-05-15T04:18:39.603Z,6.65
2019-05-15T04:19:13.789Z,5.95
2019-05-15T04:19:49.705Z,6.37
2019-05-15T04:20:24.785Z,6.50
2019-05-15T04:21:00.168Z,5.83
2019-05-15T04:21:35.486Z,6.47
2019-05-15T04:22:10.514Z,6.45
2019-05-15T04:22:45.103Z,6.58
2019-05-15T04:23:24.197Z,6.37
2019-05-15T04:23:59.673Z,5.45
2019-05-15T04:24:34.979Z,6.33
2019-05-15T04:25:10.738Z,6.70
2019-05-15T04:25:49.420Z,6.00
2019-05-15T04:26:28.708Z,5.92
2019-05-15T04:27:09.603Z,5.92
2019-05-15T04:27:44.212Z,6.42
2019-05-15T04:28:21.716Z,6.20
2019-05-15T04:29:00.074Z,6.47
2019-05-15T04:29:34.395Z,6.33
2019-05-15T04:30:10.579Z,6.05
2019-05-15T04:30:45.197Z,6.17
2019-05-15T04:31:19.946Z,6.10
2019-05-15T04:32:01.067Z,6.65
2019-05-15T04:32:31.422Z,7.42
2019-05-15T04:33:09.077Z,7.28
2019-05-15T04:33:42.513Z,5.97
2019-05-15T04:34:19.512Z,5.72
2019-05-15T04:34:53.560Z,5.22
2019-05-15T04:35:28.979Z,5.12
2019-05-15T04:36:03.955Z,5.53
2019-05-15T04:36:40.490Z,5.33
2019-05-15T04:37:15.250Z,5.58
2019-05-15T04:37:49.851Z,5.70
2019-05-15T04:38:24.660Z,5.45
2019-05-15T04:38:59.296Z,5.55
2019-05-15T04:39:33.963Z,6.40
2019-05-15T04:40:09.730Z,5.78
2019-05-15T04:40:44.539Z,6.10
2019-05-15T04:41:20.009Z,5.58
2019-05-15T04:41:55.070Z,6.25
2019-05-15T04:42:30.060Z,5.97
2019-05-15T04:43:05.099Z,7.40
2019-05-15T04:43:45.182Z,7.05
2019-05-15T04:44:19.319Z,6.12
2019-05-15T04:44:52.828Z,6.37
2019-05-15T04:45:34.471Z,6.58
2019-05-15T04:46:04.317Z,5.85
2019-05-15T04:46:39.545Z,6.42
2019-05-15T04:47:14.146Z,5.67
2019-05-15T04:47:49.818Z,6.30
2019-05-15T04:48:25.088Z,6.10
2019-05-15T04:49:00.050Z,5.45
2019-05-15T04:49:34.426Z,5.92
2019-05-15T04:50:09.672Z,6.40
2019-05-15T04:50:44.583Z,6.90
2019-05-15T04:51:19.578Z,6.28
2019-05-15T04:51:54.130Z,6.35
2019-05-15T04:52:30.484Z,6.92
2019-05-15T04:53:05.612Z,7.50
2019-05-15T04:53:40.411Z,9.73
2019-05-15T04:54:14.946Z,8.68
2019-05-15T04:54:49.758Z,8.85
2019-05-15T04:55:24.967Z,8.53
2019-05-15T04:56:00.040Z,8.13
2019-05-15T04:56:34.254Z,6.80
2019-05-15T04:57:09.439Z,6.30
2019-05-15T04:57:44.742Z,6.85
2019-05-15T04:58:20.856Z,6.47
2019-05-15T04:58:59.705Z,6.75
2019-05-15T04:59:32.403Z,5.87
2019-05-15T05:00:09.565Z,6.70
2019-05-15T05:00:52.844Z,6.15
2019-05-15T05:01:28.865Z,6.20
2019-05-15T05:02:16.282Z,5.92
2019-05-15T05:02:40.859Z,6.20
2019-05-15T05:03:19.334Z,6.95
2019-05-15T05:03:52.343Z,7.10
2019-05-15T05:04:29.537Z,7.58
2019-05-15T05:05:03.927Z,6.87
2019-05-15T05:05:38.991Z,7.37
2019-05-15T05:06:13.897Z,6.95
2019-05-15T05:06:49.566Z,7.20
2019-05-15T05:07:24.883Z,7.00
2019-05-15T05:08:00.607Z,6.90
2019-05-15T05:08:35.493Z,7.12
2019-05-15T05:09:10.270Z,7.83
2019-05-15T05:09:45.164Z,7.22
2019-05-15T05:10:20.367Z,8.08
2019-05-15T05:10:55.026Z,8.55
2019-05-15T05:11:30.273Z,8.93
2019-05-15T05:12:05.242Z,7.70
2019-05-15T05:12:41.823Z,7.65
2019-05-15T05:13:19.424Z,7.08
2019-05-15T05:13:53.133Z,7.08
2019-05-15T05:14:28.525Z,7.12
2019-05-15T05:15:03.481Z,6.72
2019-05-15T05:15:38.922Z,7.70
2019-05-15T05:16:14.045Z,7.25
2019-05-15T05:16:49.141Z,7.15
2019-05-15T05:17:24.226Z,8.65
2019-05-15T05:17:58.670Z,7.87
2019-05-15T05:18:33.467Z,7.62
2019-05-15T05:19:09.101Z,8.38
2019-05-15T05:19:44.063Z,8.10
2019-05-15T05:20:18.785Z,8.80
2019-05-15T05:20:53.663Z,9.80
2019-05-15T05:21:28.468Z,8.60
2019-05-15T05:22:03.190Z,9.08
2019-05-15T05:22:39.419Z,8.90
2019-05-15T05:23:14.577Z,9.40
2019-05-15T05:23:49.496Z,9.93
2019-05-15T05:24:24.558Z,9.23
2019-05-15T05:24:58.888Z,10.82
2019-05-15T05:25:33.706Z,9.00
2019-05-15T05:26:11.104Z,9.30
2019-05-15T05:26:45.254Z,9.30
2019-05-15T05:27:19.705Z,10.45
2019-05-15T05:27:54.666Z,9.95
2019-05-15T05:28:29.471Z,10.63
2019-05-15T05:29:05.464Z,9.95
2019-05-15T05:29:40.130Z,10.18
2019-05-15T05:30:15.161Z,9.83
2019-05-15T05:30:50.378Z,9.95
2019-05-15T05:31:25.295Z,9.18
2019-05-15T05:32:00.141Z,10.23
2019-05-15T05:32:35.498Z,10.30
2019-05-15T05:33:11.369Z,11.05
2019-05-15T05:33:48.521Z,10.48
2019-05-15T05:34:23.016Z,10.13
2019-05-15T05:34:58.921Z,10.50
2019-05-15T05:35:33.775Z,9.30
2019-05-15T05:36:08.959Z,9.83
2019-05-15T05:36:43.842Z,11.28
2019-05-15T05:37:18.709Z,10.70
2019-05-15T05:37:53.418Z,11.73
2019-05-15T05:38:28.377Z,10.63
2019-05-15T05:39:03.329Z,9.90
2019-05-15T05:39:39.521Z,11.30
2019-05-15T05:40:15.004Z,11.03
2019-05-15T05:40:50.244Z,11.35
2019-05-15T05:41:24.789Z,12.23
2019-05-15T05:41:59.774Z,13.00
2019-05-15T05:42:34.805Z,11.53
2019-05-15T05:43:09.832Z,12.53
2019-05-15T05:43:44.732Z,10.88
2019-05-15T05:44:19.954Z,11.33
2019-05-15T05:44:54.917Z,10.68
2019-05-15T05:45:30.002Z,13.45
2019-05-15T05:46:04.524Z,12.73
2019-05-15T05:46:39.881Z,12.28
2019-05-15T05:47:14.889Z,11.70
2019-05-15T05:47:49.661Z,12.82
2019-05-15T05:48:24.356Z,11.65
2019-05-15T05:48:59.220Z,12.15
2019-05-15T05:49:34.229Z,12.70
2019-05-15T05:50:10.663Z,11.33
2019-05-15T05:50:45.687Z,12.00
2019-05-15T05:51:20.447Z,13.28
2019-05-15T05:51:55.445Z,12.18
2019-05-15T05:52:30.478Z,11.50
2019-05-15T05:53:05.177Z,11.90
2019-05-15T05:53:40.243Z,12.60
2019-05-15T05:54:15.157Z,11.03
2019-05-15T05:54:50.158Z,10.88
2019-05-15T05:55:24.778Z,12.00
2019-05-15T05:55:59.947Z,12.90
2019-05-15T05:56:34.456Z,12.63
2019-05-15T05:57:09.771Z,12.20
2019-05-15T05:57:44.236Z,12.33
2019-05-15T05:58:19.792Z,12.53
2019-05-15T05:58:55.155Z,13.53
2019-05-15T05:59:30.107Z,13.03
2019-05-15T06:00:05.157Z,14.83
2019-05-15T06:00:45.031Z,15.90
2019-05-15T06:01:20.259Z,16.48
2019-05-15T06:01:55.369Z,15.35
2019-05-15T06:02:43.841Z,15.98
2019-05-15T06:03:08.687Z,16.17
2019-05-15T06:03:43.849Z,14.70
2019-05-15T06:04:18.820Z,15.03
2019-05-15T06:04:53.387Z,16.12
2019-05-15T06:05:28.335Z,15.90
2019-05-15T06:06:03.345Z,17.42
2019-05-15T06:06:38.589Z,14.78
2019-05-15T06:07:14.344Z,13.43
2019-05-15T06:07:49.619Z,13.13
2019-05-15T06:08:24.547Z,14.53
2019-05-15T06:08:59.368Z,15.58
2019-05-15T06:09:34.189Z,15.45
2019-05-15T06:10:09.449Z,15.30
2019-05-15T06:10:44.395Z,17.17
2019-05-15T06:11:19.359Z,17.50
2019-05-15T06:11:53.996Z,13.48
2019-05-15T06:12:28.940Z,14.00
2019-05-15T06:13:03.808Z,14.23
2019-05-15T06:13:38.569Z,15.23
2019-05-15T06:14:12.884Z,14.83
2019-05-15T06:14:48.482Z,14.30
2019-05-15T06:15:23.283Z,15.23
2019-05-15T06:15:59.082Z,14.87
2019-05-15T06:16:33.849Z,14.90
2019-05-15T06:17:08.895Z,14.53
2019-05-15T06:17:48.110Z,14.25
2019-05-15T06:18:23.136Z,12.05
2019-05-15T06:18:58.616Z,15.60
2019-05-15T06:19:33.733Z,12.23
2019-05-15T06:20:08.955Z,12.28
2019-05-15T06:20:44.117Z,13.43
2019-05-15T06:21:18.487Z,14.65
2019-05-15T06:21:57.425Z,14.20
2019-05-15T06:22:29.947Z,13.15
2019-05-15T06:23:04.948Z,14.03
2019-05-15T06:23:45.182Z,14.90
2019-05-15T06:24:18.063Z,16.15
2019-05-15T06:24:52.775Z,16.50
2019-05-15T06:25:30.477Z,15.38
2019-05-15T06:26:04.589Z,14.05
2019-05-15T06:26:39.180Z,14.00
2019-05-15T06:27:14.216Z,14.38
2019-05-15T06:27:49.222Z,14.07
2019-05-15T06:28:23.733Z,14.43
2019-05-15T06:28:58.708Z,14.20
2019-05-15T06:29:33.478Z,14.70
2019-05-15T06:30:14.728Z,11.35
2019-05-15T06:30:45.455Z,11.35
2019-05-15T06:31:20.674Z,12.33
2019-05-15T06:31:55.597Z,14.47
2019-05-15T06:32:30.722Z,12.90
2019-05-15T06:33:10.662Z,11.25
2019-05-15T06:33:41.587Z,11.20
2019-05-15T06:34:17.838Z,11.80
2019-05-15T06:34:53.055Z,11.55
2019-05-15T06:35:31.220Z,11.65
2019-05-15T06:36:04.841Z,10.32
2019-05-15T06:36:39.669Z,11.05
2019-05-15T06:37:14.267Z,12.75
2019-05-15T06:37:48.997Z,11.78
2019-05-15T06:38:24.058Z,12.13
2019-05-15T06:38:59.212Z,12.03
2019-05-15T06:39:34.245Z,12.25
2019-05-15T06:40:09.168Z,11.25
2019-05-15T06:40:44.071Z,11.85
2019-05-15T06:41:19.239Z,11.18
2019-05-15T06:41:54.427Z,11.03
2019-05-15T06:42:28.991Z,12.10
2019-05-15T06:43:03.848Z,12.98
2019-05-15T06:43:39.172Z,11.55
2019-05-15T06:44:13.767Z,10.45
2019-05-15T06:44:48.563Z,11.80
2019-05-15T06:45:23.952Z,11.25
2019-05-15T06:45:58.604Z,11.70
2019-05-15T06:46:33.785Z,11.10
2019-05-15T06:47:08.395Z,12.23
2019-05-15T06:47:43.442Z,13.20
2019-05-15T06:48:18.865Z,12.65
2019-05-15T06:48:53.940Z,10.90
2019-05-15T06:49:28.701Z,11.25
2019-05-15T06:50:04.030Z,9.43
2019-05-15T06:50:40.103Z,12.65
2019-05-15T06:51:15.006Z,11.18
2019-05-15T06:51:49.687Z,11.45
2019-05-15T06:52:24.804Z,10.90
2019-05-15T06:52:59.597Z,9.63
2019-05-15T06:53:34.446Z,9.55
2019-05-15T06:54:09.185Z,9.15
2019-05-15T06:54:43.962Z,10.58
2019-05-15T06:55:19.196Z,9.83
2019-05-15T06:55:54.167Z,9.93
2019-05-15T06:56:29.016Z,10.63
2019-05-15T06:57:04.068Z,10.72
2019-05-15T06:57:39.782Z,9.73
2019-05-15T06:58:14.913Z,10.32
2019-05-15T06:58:49.615Z,8.50
2019-05-15T06:59:24.559Z,8.65
2019-05-15T06:59:59.364Z,7.75
2019-05-15T07:00:34.759Z,7.37
2019-05-15T07:01:09.518Z,6.90
2019-05-15T07:01:44.352Z,7.75
2019-05-15T07:02:19.216Z,6.47
2019-05-15T07:02:54.345Z,6.78
2019-05-15T07:03:29.513Z,7.55
2019-05-15T07:04:04.705Z,7.80
2019-05-15T07:04:39.618Z,6.92
2019-05-15T07:05:14.501Z,7.55
2019-05-15T07:05:50.614Z,6.87
2019-05-15T07:06:25.918Z,6.90
2019-05-15T07:07:01.374Z,6.62
2019-05-15T07:07:38.586Z,7.12
2019-05-15T07:08:12.765Z,6.45
2019-05-15T07:08:49.684Z,6.05
2019-05-15T07:09:24.097Z,5.60
2019-05-15T07:09:59.102Z,5.97
2019-05-15T07:10:33.512Z,5.10
2019-05-15T07:11:09.062Z,6.05
2019-05-15T07:11:44.067Z,5.25
2019-05-15T07:12:18.970Z,5.40
2019-05-15T07:12:53.717Z,5.95
2019-05-15T07:13:29.221Z,5.00
2019-05-15T07:14:04.051Z,6.67
2019-05-15T07:14:39.051Z,5.90
2019-05-15T07:15:14.068Z,6.40
2019-05-15T07:15:49.865Z,5.15
2019-05-15T07:16:25.284Z,5.17
2019-05-15T07:17:00.512Z,6.65
2019-05-15T07:17:35.090Z,6.67
2019-05-15T07:18:10.124Z,6.22
2019-05-15T07:18:44.763Z,6.17
2019-05-15T07:19:19.810Z,5.92
2019-05-15T07:19:54.175Z,6.40
2019-05-15T07:20:30.190Z,7.53
2019-05-15T07:21:04.961Z,6.37
2019-05-15T07:21:39.877Z,6.40
2019-05-15T07:22:14.964Z,6.50
2019-05-15T07:22:49.701Z,6.40
2019-05-15T07:23:27.221Z,5.70
2019-05-15T07:24:01.587Z,6.50
2019-05-15T07:24:38.217Z,6.33
2019-05-15T07:25:12.944Z,6.00
2019-05-15T07:25:49.868Z,5.60
2019-05-15T07:26:24.519Z,5.83
2019-05-15T07:26:59.379Z,5.33
2019-05-15T07:27:34.555Z,5.92
2019-05-15T07:28:09.228Z,5.42
2019-05-15T07:28:44.135Z,5.40
2019-05-15T07:29:19.024Z,6.83
2019-05-15T07:29:53.678Z,6.28
2019-05-15T07:30:29.499Z,4.92
2019-05-15T07:31:04.543Z,4.80
2019-05-15T07:31:39.078Z,5.30
2019-05-15T07:32:22.166Z,5.42
2019-05-15T07:32:58.505Z,7.10
2019-05-15T07:33:39.583Z,6.37
2019-05-15T07:34:09.709Z,6.62
2019-05-15T07:34:44.567Z,6.42
2019-05-15T07:35:19.756Z,6.17
2019-05-15T07:35:54.777Z,6.95
2019-05-15T07:36:32.968Z,5.50
2019-05-15T07:37:09.712Z,5.47
2019-05-15T07:37:44.799Z,6.47
2019-05-15T07:38:20.059Z,5.62
2019-05-15T07:38:54.511Z,5.55
2019-05-15T07:39:29.615Z,6.03
2019-05-15T07:40:05.151Z,6.47
2019-05-15T07:40:40.027Z,6.25
2019-05-15T07:41:14.575Z,5.72
2019-05-15T07:41:49.495Z,6.28
2019-05-15T07:42:24.316Z,5.58
2019-05-15T07:42:59.426Z,5.42